Main page
METAR-TAF:

METAR-TAF

Airports :

Alice International Airport

Alice, Texas, United States

latitude: 27-44-28N, longitude: 098-01-37W, elevation: 177 ft

Current weather observation

The report was made 42 minutes ago, at 17:53 UTC
Wind 6 mph from the East
Temperature 97°F
Humidity 45%
Pressure 29.89 in. Hg
Visibility: 10 miles
Broken clouds at a height of 4900 ft

METAR: KALI 141753Z AUTO 08005KT 10SM BKN049 36/22 A2989 RMK AO2 SLP120 T03560217 10361 20239 56016

Time: 13:35 (18:35 UTC)

Forecast

The report was made 1 hour and 11 minutes ago, at 17:24 UTC
Forecast valid from 14 at 18 UTC to 15 at 18 UTC
Wind 5 mph from variable directions
Visibility: 6 miles
Scattered clouds at a height of 4000 ft
From 14 at 2100 UTC
Wind 12 mph from the East
Visibility: 6 miles
Few clouds at a height of 5000 ft
From 15 at 0100 UTC
Wind 6 mph from the East/Southeast
Visibility: 6 miles
Few clouds at a height of 25000 ft

TAF: KALI 141724Z 1418/1518 VRB04KT P6SM SCT040 FM142100 09010KT P6SM FEW050 FM150100 12005KT P6SM FEW250

Weather observations and forecasts of more than 4000 airports (METAR and TAF reports).

The available stations are represented by yellow and red dots on the map.

Hover mouse over dot to see the name of the station.

Then click to see weather observations and forecasts.

To change the map : click on the green buttons with a black cross to zoom in, on the green button with a dash to zoom out, or on the green arrows for adjacent maps.


METAR-TAF: